createdAt,value
2023-02-14T00:01:21.291Z,5.60
2023-02-14T00:03:49.556Z,5.60
2023-02-14T00:06:16.728Z,5.60
2023-02-14T00:08:47.107Z,5.60
2023-02-14T00:11:15.558Z,5.50
2023-02-14T00:14:05.275Z,5.50
2023-02-14T00:16:33.280Z,5.50
2023-02-14T00:19:05.832Z,5.50
2023-02-14T00:21:37.745Z,5.40
2023-02-14T00:24:07.347Z,5.40
2023-02-14T00:26:34.623Z,5.40
2023-02-14T00:29:01.831Z,5.40
2023-02-14T00:31:29.104Z,5.40
2023-02-14T00:33:56.299Z,5.30
2023-02-14T00:36:23.663Z,5.30
2023-02-14T00:38:50.979Z,5.30
2023-02-14T00:41:20.747Z,5.30
2023-02-14T00:43:52.564Z,5.30
2023-02-14T00:46:22.015Z,5.30
2023-02-14T00:48:49.296Z,5.30
2023-02-14T00:51:19.202Z,5.30
2023-02-14T00:53:48.160Z,5.30
2023-02-14T00:56:18.350Z,5.30
2023-02-14T00:58:48.684Z,5.30
2023-02-14T01:01:19.180Z,5.30
2023-02-14T01:03:47.079Z,5.30
2023-02-14T01:06:14.259Z,5.30
2023-02-14T01:08:41.536Z,5.30
2023-02-14T01:11:14.938Z,5.20
2023-02-14T01:13:43.472Z,5.20
2023-02-14T01:16:16.507Z,5.20
2023-02-14T01:18:44.248Z,5.20
2023-02-14T01:21:25.780Z,5.20
2023-02-14T01:23:54.805Z,5.20
2023-02-14T01:26:23.065Z,5.20
2023-02-14T01:28:50.568Z,5.20
2023-02-14T01:31:21.195Z,5.20
2023-02-14T01:33:49.747Z,5.20
2023-02-14T01:36:23.597Z,5.20
2023-02-14T01:38:56.897Z,5.10
2023-02-14T01:41:26.317Z,5.10
2023-02-14T01:44:05.249Z,5.10
2023-02-14T01:46:36.970Z,5.10
2023-02-14T01:49:11.030Z,5.10
2023-02-14T01:51:46.450Z,5.10
2023-02-14T01:54:13.889Z,5.10
2023-02-14T01:56:53.155Z,5.10
2023-02-14T01:59:24.155Z,5.00
2023-02-14T02:01:53.562Z,5.00
2023-02-14T02:04:29.553Z,5.00
2023-02-14T02:07:04.068Z,5.00
2023-02-14T02:09:44.804Z,5.00
2023-02-14T02:12:12.676Z,5.00
2023-02-14T02:14:43.560Z,4.90
2023-02-14T02:17:14.891Z,4.90
2023-02-14T02:20:09.410Z,4.90
2023-02-14T02:23:14.658Z,4.90
2023-02-14T02:26:08.430Z,4.90
2023-02-14T02:29:00.441Z,4.80
2023-02-14T02:31:43.634Z,4.80
2023-02-14T02:34:35.750Z,4.80
2023-02-14T02:37:23.464Z,4.70
2023-02-14T02:40:10.494Z,4.70
2023-02-14T02:42:49.988Z,4.70
2023-02-14T02:46:00.569Z,4.70
2023-02-14T02:48:39.721Z,4.60
2023-02-14T02:51:29.728Z,4.70
2023-02-14T02:54:13.780Z,4.60
2023-02-14T02:56:56.135Z,4.60
2023-02-14T02:59:38.103Z,4.60
2023-02-14T03:02:15.093Z,4.60
2023-02-14T03:04:54.490Z,4.60
2023-02-14T03:07:40.506Z,4.60
2023-02-14T03:10:24.021Z,4.60
2023-02-14T03:13:10.325Z,4.50
2023-02-14T03:16:07.868Z,4.60
2023-02-14T03:19:29.341Z,4.50
2023-02-14T03:22:03.704Z,4.50
2023-02-14T03:25:09.216Z,4.60
2023-02-14T03:27:43.833Z,4.60
2023-02-14T03:30:33.684Z,4.60
2023-02-14T03:33:10.963Z,4.60
2023-02-14T03:36:02.292Z,4.60
2023-02-14T03:39:15.494Z,4.70
2023-02-14T03:41:50.950Z,4.70
2023-02-14T03:44:22.819Z,4.70
2023-02-14T03:46:54.565Z,4.70
2023-02-14T03:49:39.384Z,4.80
2023-02-14T03:52:09.870Z,4.70
2023-02-14T03:54:39.526Z,4.80
2023-02-14T03:57:38.644Z,4.80
2023-02-14T04:00:06.919Z,4.70
2023-02-14T04:02:46.737Z,4.70
2023-02-14T04:05:19.594Z,4.70
2023-02-14T04:07:50.311Z,4.70
2023-02-14T04:10:18.741Z,4.70
2023-02-14T04:12:46.003Z,4.70
2023-02-14T04:15:13.966Z,4.70
2023-02-14T04:18:07.670Z,4.60
2023-02-14T04:20:35.015Z,4.60
2023-02-14T04:23:03.540Z,4.60
2023-02-14T04:25:31.198Z,4.60
2023-02-14T04:27:58.409Z,4.50
2023-02-14T04:30:25.840Z,4.50
2023-02-14T04:32:52.998Z,4.50
2023-02-14T04:35:20.143Z,4.50
2023-02-14T04:37:47.437Z,4.50
2023-02-14T04:40:17.391Z,4.50
2023-02-14T04:42:45.833Z,4.50
2023-02-14T04:45:13.356Z,4.40
2023-02-14T04:47:40.718Z,4.50
2023-02-14T04:50:08.391Z,4.40
2023-02-14T04:52:35.549Z,4.40
2023-02-14T04:55:04.546Z,4.40
2023-02-14T04:57:31.952Z,4.40
2023-02-14T04:59:59.137Z,4.40
2023-02-14T05:02:26.685Z,4.40
2023-02-14T05:04:53.884Z,4.40
2023-02-14T05:07:21.098Z,4.40
2023-02-14T05:09:48.348Z,4.40
2023-02-14T05:12:17.012Z,4.40
2023-02-14T05:14:43.964Z,4.40
2023-02-14T05:17:11.016Z,4.40
2023-02-14T05:19:38.090Z,4.40
2023-02-14T05:22:05.210Z,4.30
2023-02-14T05:24:33.504Z,4.30
2023-02-14T05:27:00.747Z,4.30
2023-02-14T05:29:28.036Z,4.30
2023-02-14T05:31:55.272Z,4.30
2023-02-14T05:34:22.443Z,4.30
2023-02-14T05:36:49.454Z,4.30
2023-02-14T05:39:16.488Z,4.20
2023-02-14T05:41:43.509Z,4.20
2023-02-14T05:44:10.691Z,4.20
2023-02-14T05:46:37.805Z,4.20
2023-02-14T05:49:04.860Z,4.20
2023-02-14T05:51:32.080Z,4.20
2023-02-14T05:54:01.230Z,4.20
2023-02-14T05:56:28.460Z,4.20
2023-02-14T05:58:55.672Z,4.10
2023-02-14T06:01:26.053Z,4.10
2023-02-14T06:03:53.321Z,4.10
2023-02-14T06:06:20.736Z,4.10
2023-02-14T06:08:47.826Z,4.10
2023-02-14T06:11:15.353Z,4.10
2023-02-14T06:13:42.450Z,4.00
2023-02-14T06:16:09.571Z,4.00
2023-02-14T06:18:37.634Z,4.00
2023-02-14T06:21:04.906Z,4.00
2023-02-14T06:23:32.103Z,4.00
2023-02-14T06:25:59.304Z,4.00
2023-02-14T06:28:26.646Z,4.00
2023-02-14T06:30:53.892Z,3.90
2023-02-14T06:33:21.085Z,4.00
2023-02-14T06:35:48.229Z,3.90
2023-02-14T06:38:15.387Z,3.90
2023-02-14T06:40:42.439Z,3.90
2023-02-14T06:43:09.576Z,3.90
2023-02-14T06:45:36.661Z,3.90
2023-02-14T06:48:04.299Z,3.90
2023-02-14T06:50:31.370Z,3.80
2023-02-14T06:52:58.520Z,3.80
2023-02-14T06:55:25.784Z,3.80
2023-02-14T06:57:52.920Z,3.80
2023-02-14T07:00:20.605Z,3.80
2023-02-14T07:02:47.947Z,3.80
2023-02-14T07:05:19.013Z,3.70
2023-02-14T07:07:46.672Z,3.70
2023-02-14T07:10:14.382Z,3.70
2023-02-14T07:12:41.696Z,3.70
2023-02-14T07:15:10.875Z,3.70
2023-02-14T07:17:38.508Z,3.70
2023-02-14T07:20:07.351Z,3.80
2023-02-14T07:22:34.836Z,3.70
2023-02-14T07:25:02.273Z,3.70
2023-02-14T07:27:29.271Z,3.70
2023-02-14T07:29:56.455Z,3.70
2023-02-14T07:32:23.664Z,3.70
2023-02-14T07:34:51.366Z,3.80
2023-02-14T07:37:19.194Z,3.80
2023-02-14T07:39:46.506Z,3.90
2023-02-14T07:42:13.646Z,3.90
2023-02-14T07:44:46.331Z,3.90
2023-02-14T07:47:13.475Z,3.90
2023-02-14T07:49:40.659Z,3.90
2023-02-14T07:52:07.665Z,3.90
2023-02-14T07:54:34.892Z,3.90
2023-02-14T07:57:01.997Z,3.90
2023-02-14T07:59:29.042Z,3.90
2023-02-14T08:01:56.414Z,3.90
2023-02-14T08:04:26.283Z,3.90
2023-02-14T08:06:57.179Z,3.90
2023-02-14T08:09:27.032Z,4.00
2023-02-14T08:12:14.653Z,3.90
2023-02-14T08:14:43.087Z,4.00
2023-02-14T08:17:13.414Z,4.00
2023-02-14T08:19:41.051Z,4.00
2023-02-14T08:22:08.376Z,4.00
2023-02-14T08:24:35.384Z,4.00
2023-02-14T08:27:02.511Z,4.00
2023-02-14T08:29:29.725Z,4.00
2023-02-14T08:32:00.327Z,4.10
2023-02-14T08:34:27.524Z,4.10
2023-02-14T08:36:55.544Z,4.10
2023-02-14T08:39:22.698Z,4.20
2023-02-14T08:41:49.740Z,4.20
2023-02-14T08:44:16.876Z,4.20
2023-02-14T08:46:43.945Z,4.20
2023-02-14T08:49:11.266Z,4.20
2023-02-14T08:51:38.341Z,4.30
2023-02-14T08:54:05.422Z,4.30
2023-02-14T08:56:33.316Z,4.40
2023-02-14T08:59:00.491Z,4.40
2023-02-14T09:01:29.219Z,4.40
2023-02-14T09:03:56.919Z,4.40
2023-02-14T09:06:24.616Z,4.50
2023-02-14T09:08:53.643Z,4.50
2023-02-14T09:11:23.101Z,4.50
2023-02-14T09:13:53.237Z,4.50
2023-02-14T09:16:22.777Z,4.60
2023-02-14T09:18:50.730Z,4.60
2023-02-14T09:21:21.204Z,4.60
2023-02-14T09:23:48.350Z,4.70
2023-02-14T09:26:16.716Z,4.70
2023-02-14T09:28:44.470Z,4.80
2023-02-14T09:31:20.156Z,4.80
2023-02-14T09:34:07.211Z,4.80
2023-02-14T09:36:34.356Z,4.90
2023-02-14T09:39:01.482Z,4.90
2023-02-14T09:41:31.483Z,5.00
2023-02-14T09:44:04.156Z,5.00
2023-02-14T09:46:40.451Z,5.10
2023-02-14T09:49:13.621Z,5.20
2023-02-14T09:51:46.081Z,5.20
2023-02-14T09:54:19.002Z,5.30
2023-02-14T09:56:55.918Z,5.40
2023-02-14T09:59:36.154Z,5.40
2023-02-14T10:02:27.218Z,5.50
2023-02-14T10:05:15.374Z,5.60
2023-02-14T10:08:08.389Z,5.60
2023-02-14T10:10:41.839Z,5.70
2023-02-14T10:13:20.940Z,5.80
2023-02-14T10:16:02.527Z,5.80
2023-02-14T10:18:48.962Z,5.90
2023-02-14T10:21:38.407Z,6.00
2023-02-14T10:24:23.193Z,6.00
2023-02-14T10:26:53.039Z,6.10
2023-02-14T10:29:21.071Z,6.10
2023-02-14T10:31:56.029Z,6.20
2023-02-14T10:34:45.868Z,6.30
2023-02-14T10:37:37.283Z,6.40
2023-02-14T10:40:17.499Z,6.50
2023-02-14T10:42:54.138Z,6.70
2023-02-14T10:45:51.908Z,6.90
2023-02-14T10:48:44.220Z,7.20
2023-02-14T10:51:23.421Z,7.60
2023-02-14T10:54:16.264Z,8.10
2023-02-14T10:57:03.451Z,8.80
2023-02-14T10:59:58.013Z,9.50
2023-02-14T11:02:31.790Z,10.10
2023-02-14T11:05:00.803Z,10.60
2023-02-14T11:07:28.068Z,11.00
2023-02-14T11:09:56.705Z,11.30
2023-02-14T11:12:32.654Z,11.60
2023-02-14T11:15:14.920Z,11.90
2023-02-14T11:17:42.900Z,12.40
2023-02-14T11:20:24.559Z,12.70
2023-02-14T11:22:51.694Z,13.10
2023-02-14T11:25:21.816Z,13.40
2023-02-14T11:27:55.975Z,13.60
2023-02-14T11:30:33.772Z,14.00
2023-02-14T11:33:01.318Z,14.30
2023-02-14T11:35:37.182Z,14.60
2023-02-14T11:38:07.465Z,14.90
2023-02-14T11:40:37.927Z,15.10
2023-02-14T11:43:14.317Z,15.20
2023-02-14T11:45:47.419Z,15.30
2023-02-14T11:48:41.959Z,15.40
2023-02-14T11:51:15.145Z,15.40
2023-02-14T11:53:46.754Z,15.40
2023-02-14T11:56:15.653Z,15.40
2023-02-14T11:59:04.587Z,15.40
2023-02-14T12:01:36.949Z,15.30
2023-02-14T12:04:08.284Z,15.20
2023-02-14T12:06:36.879Z,15.10
2023-02-14T12:09:27.222Z,14.90
2023-02-14T12:12:23.798Z,14.70
2023-02-14T12:14:50.968Z,14.50
2023-02-14T12:17:31.139Z,14.30
2023-02-14T12:20:10.202Z,14.10
2023-02-14T12:22:46.693Z,14.00
2023-02-14T12:25:22.898Z,13.80
2023-02-14T12:28:01.450Z,13.70
2023-02-14T12:30:33.757Z,13.60
2023-02-14T12:33:01.471Z,13.50
2023-02-14T12:35:43.976Z,13.50
2023-02-14T12:38:17.168Z,13.40
2023-02-14T12:41:05.316Z,13.40
2023-02-14T12:43:35.395Z,13.30
2023-02-14T12:46:37.538Z,13.30
2023-02-14T12:49:31.680Z,13.30
2023-02-14T12:52:13.734Z,13.30
2023-02-14T12:55:07.836Z,13.20
2023-02-14T12:57:37.983Z,13.20
2023-02-14T13:00:15.370Z,13.20
2023-02-14T13:03:15.655Z,13.20
2023-02-14T13:06:14.005Z,13.30
2023-02-14T13:08:54.212Z,13.30
2023-02-14T13:11:40.436Z,13.30
2023-02-14T13:14:16.459Z,13.30
2023-02-14T13:17:03.612Z,13.20
2023-02-14T13:19:45.619Z,13.20
2023-02-14T13:22:18.118Z,13.10
2023-02-14T13:24:57.852Z,13.10
2023-02-14T13:27:28.806Z,13.00
2023-02-14T13:30:04.890Z,13.00
2023-02-14T13:32:39.034Z,12.90
2023-02-14T13:35:07.823Z,12.90
2023-02-14T13:37:36.652Z,12.90
2023-02-14T13:40:16.064Z,12.80
2023-02-14T13:42:49.902Z,12.80
2023-02-14T13:45:32.207Z,12.80
2023-02-14T13:48:19.772Z,12.70
2023-02-14T13:50:51.850Z,12.70
2023-02-14T13:53:42.089Z,12.70
2023-02-14T13:56:12.053Z,12.60
2023-02-14T13:59:05.521Z,12.60
2023-02-14T14:01:48.127Z,12.60
2023-02-14T14:04:31.902Z,12.60
2023-02-14T14:07:30.882Z,12.50
2023-02-14T14:10:00.496Z,12.50
2023-02-14T14:12:27.547Z,12.50
2023-02-14T14:15:06.969Z,12.50
2023-02-14T14:18:06.893Z,12.40
2023-02-14T14:20:46.454Z,12.40
2023-02-14T14:23:32.422Z,12.40
2023-02-14T14:26:00.954Z,12.40
2023-02-14T14:28:32.056Z,12.30
2023-02-14T14:30:59.514Z,12.30
2023-02-14T14:33:33.524Z,12.30
2023-02-14T14:36:08.249Z,12.30
2023-02-14T14:38:47.447Z,12.30
2023-02-14T14:41:14.516Z,12.30
2023-02-14T14:43:42.180Z,12.30
2023-02-14T14:46:13.258Z,12.30
2023-02-14T14:48:51.566Z,12.20
2023-02-14T14:51:32.264Z,12.20
2023-02-14T14:54:03.450Z,12.20
2023-02-14T14:56:32.473Z,12.20
2023-02-14T14:59:18.140Z,12.20
2023-02-14T15:01:46.173Z,12.20
2023-02-14T15:04:19.620Z,12.20
2023-02-14T15:06:47.596Z,12.20
2023-02-14T15:09:23.017Z,12.20
2023-02-14T15:12:10.848Z,12.20
2023-02-14T15:14:42.890Z,12.20
2023-02-14T15:17:21.003Z,12.20
2023-02-14T15:19:51.673Z,12.10
2023-02-14T15:22:29.718Z,12.10
2023-02-14T15:24:58.676Z,12.10
2023-02-14T15:27:28.534Z,12.10
2023-02-14T15:30:01.347Z,12.10
2023-02-14T15:32:32.579Z,12.10
2023-02-14T15:35:03.716Z,12.00
2023-02-14T15:37:32.412Z,12.00
2023-02-14T15:39:59.987Z,12.00
2023-02-14T15:42:33.363Z,12.00
2023-02-14T15:45:26.125Z,11.90
2023-02-14T15:47:57.524Z,11.90
2023-02-14T15:50:27.965Z,11.90
2023-02-14T15:53:00.045Z,11.90
2023-02-14T15:55:27.875Z,11.80
2023-02-14T15:58:01.745Z,11.80
2023-02-14T16:00:29.222Z,11.80
2023-02-14T16:03:08.583Z,11.80
2023-02-14T16:05:35.550Z,11.70
2023-02-14T16:08:06.429Z,11.70
2023-02-14T16:10:34.486Z,11.60
2023-02-14T16:13:03.491Z,11.60
2023-02-14T16:15:33.569Z,11.60
2023-02-14T16:18:06.948Z,11.60
2023-02-14T16:20:43.345Z,11.50
2023-02-14T16:23:26.650Z,11.50
2023-02-14T16:25:57.278Z,11.50
2023-02-14T16:28:28.468Z,11.40
2023-02-14T16:30:57.753Z,11.40
2023-02-14T16:33:30.912Z,11.30
2023-02-14T16:36:22.882Z,11.30
2023-02-14T16:38:50.884Z,11.30
2023-02-14T16:41:23.174Z,11.20
2023-02-14T16:43:50.624Z,11.20
2023-02-14T16:46:37.409Z,11.10
2023-02-14T16:49:04.452Z,11.10
2023-02-14T16:51:34.255Z,11.00
2023-02-14T16:54:05.423Z,11.00
2023-02-14T16:56:48.678Z,10.90
2023-02-14T16:59:15.732Z,10.90
2023-02-14T17:01:42.959Z,10.80
2023-02-14T17:04:10.232Z,10.80
2023-02-14T17:06:39.888Z,10.70
2023-02-14T17:09:11.802Z,10.70
2023-02-14T17:11:43.471Z,10.70
2023-02-14T17:14:14.910Z,10.60
2023-02-14T17:16:42.620Z,10.60
2023-02-14T17:19:10.422Z,10.60
2023-02-14T17:21:38.312Z,10.50
2023-02-14T17:24:05.406Z,10.50
2023-02-14T17:26:33.905Z,10.50
2023-02-14T17:29:00.989Z,10.40
2023-02-14T17:31:29.089Z,10.40
2023-02-14T17:33:56.157Z,10.40
2023-02-14T17:36:24.217Z,10.30
2023-02-14T17:38:53.790Z,10.30
2023-02-14T17:41:23.334Z,10.30
2023-02-14T17:43:53.165Z,10.20
2023-02-14T17:46:22.320Z,10.10
2023-02-14T17:48:49.657Z,10.10
2023-02-14T17:51:18.150Z,10.10
2023-02-14T17:53:44.996Z,10.00
2023-02-14T17:56:20.233Z,10.00
2023-02-14T17:58:48.944Z,10.00
2023-02-14T18:01:18.772Z,10.00
2023-02-14T18:03:45.865Z,9.90
2023-02-14T18:06:14.458Z,9.90
2023-02-14T18:08:46.270Z,9.90
2023-02-14T18:11:14.198Z,9.80
2023-02-14T18:13:41.638Z,9.80
2023-02-14T18:16:12.181Z,9.70
2023-02-14T18:18:39.872Z,9.70
2023-02-14T18:21:10.333Z,9.70
2023-02-14T18:23:38.165Z,9.60
2023-02-14T18:26:10.137Z,9.60
2023-02-14T18:28:37.203Z,9.50
2023-02-14T18:31:13.407Z,9.50
2023-02-14T18:33:40.718Z,9.50
2023-02-14T18:36:13.566Z,9.40
2023-02-14T18:38:42.070Z,9.40
2023-02-14T18:41:10.255Z,9.40
2023-02-14T18:43:37.789Z,9.30
2023-02-14T18:46:06.949Z,9.30
2023-02-14T18:48:34.577Z,9.30
2023-02-14T18:51:13.223Z,9.20
2023-02-14T18:53:41.244Z,9.20
2023-02-14T18:56:14.088Z,9.20
2023-02-14T18:58:43.829Z,9.20
2023-02-14T19:01:23.514Z,9.10
2023-02-14T19:03:52.928Z,9.00
2023-02-14T19:06:20.869Z,9.00
2023-02-14T19:08:51.353Z,9.00
2023-02-14T19:11:24.301Z,9.00
2023-02-14T19:13:56.575Z,8.90
2023-02-14T19:16:26.390Z,8.90
2023-02-14T19:18:54.146Z,8.80
2023-02-14T19:21:27.421Z,8.80
2023-02-14T19:23:58.718Z,8.80
2023-02-14T19:26:37.238Z,8.70
2023-02-14T19:29:06.177Z,8.70
2023-02-14T19:31:37.540Z,8.70
2023-02-14T19:34:06.602Z,8.60
2023-02-14T19:36:36.395Z,8.60
2023-02-14T19:39:04.036Z,8.60
2023-02-14T19:41:34.635Z,8.50
2023-02-14T19:44:04.919Z,8.50
2023-02-14T19:46:32.846Z,8.50
2023-02-14T19:49:00.831Z,8.50
2023-02-14T19:51:30.826Z,8.50
2023-02-14T19:53:59.575Z,8.40
2023-02-14T19:56:30.078Z,8.40
2023-02-14T19:58:57.632Z,8.30
2023-02-14T20:01:33.527Z,8.30
2023-02-14T20:04:01.211Z,8.30
2023-02-14T20:06:32.002Z,8.20
2023-02-14T20:08:59.107Z,8.20
2023-02-14T20:11:52.334Z,8.20
2023-02-14T20:14:36.037Z,8.20
2023-02-14T20:17:07.995Z,8.20
2023-02-14T20:19:37.078Z,8.20
2023-02-14T20:22:05.504Z,8.10
2023-02-14T20:24:32.783Z,8.20
2023-02-14T20:27:00.621Z,8.20
2023-02-14T20:29:27.901Z,8.10
2023-02-14T20:32:01.529Z,8.10
2023-02-14T20:34:28.847Z,8.10
2023-02-14T20:36:56.225Z,8.10
2023-02-14T20:39:29.119Z,8.10
2023-02-14T20:41:56.740Z,8.10
2023-02-14T20:44:24.103Z,8.00
2023-02-14T20:46:53.778Z,8.00
2023-02-14T20:49:22.518Z,8.00
2023-02-14T20:51:50.975Z,8.00
2023-02-14T20:54:19.901Z,8.00
2023-02-14T20:56:48.087Z,8.00
2023-02-14T20:59:15.308Z,8.00
2023-02-14T21:01:42.646Z,8.00
2023-02-14T21:04:10.072Z,8.00
2023-02-14T21:06:39.970Z,8.00
2023-02-14T21:09:07.448Z,8.00
2023-02-14T21:11:34.736Z,8.00
2023-02-14T21:14:02.271Z,8.00
2023-02-14T21:16:30.423Z,7.90
2023-02-14T21:18:59.514Z,8.00
2023-02-14T21:21:32.331Z,7.90
2023-02-14T21:24:01.490Z,8.00
2023-02-14T21:26:29.491Z,7.90
2023-02-14T21:28:56.770Z,7.90
2023-02-14T21:31:25.673Z,7.90
2023-02-14T21:33:58.001Z,7.90
2023-02-14T21:36:27.782Z,7.90
2023-02-14T21:38:58.302Z,7.90
2023-02-14T21:41:27.726Z,7.90
2023-02-14T21:43:56.525Z,7.90
2023-02-14T21:46:31.226Z,7.90
2023-02-14T21:49:19.271Z,7.90
2023-02-14T21:51:47.863Z,7.90
2023-02-14T21:54:15.648Z,7.90
2023-02-14T21:56:43.212Z,7.90
2023-02-14T21:59:10.453Z,7.90
2023-02-14T22:01:40.242Z,7.90
2023-02-14T22:04:09.418Z,7.90
2023-02-14T22:06:38.644Z,7.90
2023-02-14T22:09:06.468Z,7.90
2023-02-14T22:11:34.068Z,7.90
2023-02-14T22:14:01.483Z,7.90
2023-02-14T22:16:28.890Z,7.90
2023-02-14T22:18:56.262Z,7.90
2023-02-14T22:21:25.598Z,7.80
2023-02-14T22:23:53.335Z,7.90
2023-02-14T22:26:26.724Z,7.90
2023-02-14T22:28:59.438Z,7.80
2023-02-14T22:31:29.220Z,7.80
2023-02-14T22:33:56.898Z,7.80
2023-02-14T22:36:24.347Z,7.80
2023-02-14T22:38:51.608Z,7.90
2023-02-14T22:41:21.638Z,7.80
2023-02-14T22:43:49.049Z,7.90
2023-02-14T22:46:17.769Z,7.90
2023-02-14T22:48:44.825Z,7.90
2023-02-14T22:51:22.325Z,7.80
2023-02-14T22:53:51.023Z,7.90
2023-02-14T22:56:20.017Z,7.90
2023-02-14T22:58:47.433Z,7.90
2023-02-14T23:01:20.086Z,7.90
2023-02-14T23:03:48.287Z,7.90
2023-02-14T23:06:16.168Z,7.90
2023-02-14T23:08:46.117Z,7.90
2023-02-14T23:11:34.621Z,7.90
2023-02-14T23:14:20.189Z,7.90
2023-02-14T23:17:25.466Z,7.90
2023-02-14T23:20:11.245Z,7.90
2023-02-14T23:22:41.392Z,7.90
2023-02-14T23:25:11.245Z,7.90
2023-02-14T23:27:45.502Z,7.80
2023-02-14T23:30:16.839Z,7.80
2023-02-14T23:32:44.582Z,7.90
2023-02-14T23:35:11.771Z,7.90
2023-02-14T23:37:38.999Z,7.90
2023-02-14T23:40:07.389Z,7.90
2023-02-14T23:42:34.541Z,7.80
2023-02-14T23:45:21.924Z,7.80
2023-02-14T23:47:49.083Z,7.90
2023-02-14T23:50:16.308Z,7.90
2023-02-14T23:52:45.806Z,7.80
2023-02-14T23:55:13.338Z,7.90
2023-02-14T23:57:40.676Z,7.80
